logo
Search for airport 
image banner adimage banner adimage banner ad
image banner ad

EHS059 - Tirns

Located in , Netherlands

ICAO - , IATA -

Data provided by Airmate  

General information

Coordinates: N53°3'18" E5°38'3"
Elevation is feet MSL.
 
View others Airports in Friesland

Operational data

Special qualification required
Current time UTC:
Current local time:
Weather at : EHLW - Leeuwarden/Leeuwarden ( 20 km )
METAR: EHLW 171325Z AUTO 27010KT 230V310 9999 SCT018 BKN021 BKN026 19/15 Q1020 WHT NOSIG
TAF: TAF EHLW 171225Z 1713/1801 28010KT 9999 SCT018 PROB40 TEMPO 1717/1801 SCT012 SCT015 BECMG 1719/1721 VRB02KT PROB40 1723/1801 2500 BR BCFG
View NOTAMs / SUP AIP / TFR affecting this airport [VIEW]
Communications frequencies: [VIEW]

Runways:

Airport contact information

Address: Netherlands

Satellite view of EHS059